sensor_id;sensor_type;location;lat;lon;timestamp;pressure;altitude;pressure_sealevel;temperature;humidity
39789;BME280;25478;42.626;23.320;2023-03-01T00:01:45;93516.59;;;4.13;100.00
39789;BME280;25478;42.626;23.320;2023-03-01T00:04:11;93513.44;;;4.08;100.00
39789;BME280;25478;42.626;23.320;2023-03-01T00:06:36;93508.53;;;4.06;100.00
39789;BME280;25478;42.626;23.320;2023-03-01T00:09:03;93516.53;;;4.01;100.00
39789;BME280;25478;42.626;23.320;2023-03-01T00:11:31;93488.63;;;3.89;100.00
39789;BME280;25478;42.626;23.320;2023-03-01T00:13:58;93507.53;;;3.99;100.00
39789;BME280;25478;42.626;23.320;2023-03-01T00:16:33;93501.69;;;4.02;100.00
39789;BME280;25478;42.626;23.320;2023-03-01T00:18:59;93475.47;;;3.86;100.00
39789;BME280;25478;42.626;23.320;2023-03-01T00:21:25;93503.41;;;3.98;100.00
39789;BME280;25478;42.626;23.320;2023-03-01T00:23:51;93494.09;;;3.97;100.00
39789;BME280;25478;42.626;23.320;2023-03-01T00:26:19;93488.88;;;3.97;100.00
39789;BME280;25478;42.626;23.320;2023-03-01T00:28:45;93453.19;;;3.76;100.00
39789;BME280;25478;42.626;23.320;2023-03-01T00:31:14;93478.00;;;3.94;100.00
39789;BME280;25478;42.626;23.320;2023-03-01T00:33:40;93468.66;;;3.93;100.00
39789;BME280;25478;42.626;23.320;2023-03-01T00:36:06;93467.13;;;3.92;100.00
39789;BME280;25478;42.626;23.320;2023-03-01T00:38:36;93461.50;;;3.90;100.00
39789;BME280;25478;42.626;23.320;2023-03-01T00:41:16;93452.59;;;3.91;100.00
39789;BME280;25478;42.626;23.320;2023-03-01T00:43:42;93450.97;;;3.87;100.00
39789;BME280;25478;42.626;23.320;2023-03-01T00:46:12;93464.44;;;3.89;100.00
39789;BME280;25478;42.626;23.320;2023-03-01T00:48:38;93433.44;;;3.63;100.00
39789;BME280;25478;42.626;23.320;2023-03-01T00:51:18;93468.41;;;3.86;100.00
39789;BME280;25478;42.626;23.320;2023-03-01T00:53:45;93465.81;;;3.86;100.00
39789;BME280;25478;42.626;23.320;2023-03-01T00:56:12;93439.41;;;3.76;100.00
39789;BME280;25478;42.626;23.320;2023-03-01T00:58:38;93454.78;;;3.89;100.00
39789;BME280;25478;42.626;23.320;2023-03-01T01:01:18;93440.63;;;3.78;100.00
39789;BME280;25478;42.626;23.320;2023-03-01T01:03:48;93450.75;;;3.92;100.00
39789;BME280;25478;42.626;23.320;2023-03-01T01:06:19;93449.81;;;3.97;100.00
39789;BME280;25478;42.626;23.320;2023-03-01T01:08:46;93446.53;;;4.00;100.00
39789;BME280;25478;42.626;23.320;2023-03-01T01:11:12;93455.53;;;4.02;100.00
39789;BME280;25478;42.626;23.320;2023-03-01T01:13:39;93442.84;;;4.01;100.00
39789;BME280;25478;42.626;23.320;2023-03-01T01:16:06;93448.94;;;4.05;100.00
39789;BME280;25478;42.626;23.320;2023-03-01T01:18:33;93457.97;;;4.07;100.00
39789;BME280;25478;42.626;23.320;2023-03-01T01:21:07;93447.09;;;4.05;100.00
39789;BME280;25478;42.626;23.320;2023-03-01T01:23:33;93424.47;;;3.85;100.00
39789;BME280;25478;42.626;23.320;2023-03-01T01:26:04;93443.38;;;3.94;100.00
39789;BME280;25478;42.626;23.320;2023-03-01T01:28:29;93444.59;;;3.97;100.00
39789;BME280;25478;42.626;23.320;2023-03-01T01:30:55;93443.69;;;3.92;100.00
39789;BME280;25478;42.626;23.320;2023-03-01T01:33:20;93451.19;;;3.94;100.00
39789;BME280;25478;42.626;23.320;2023-03-01T01:35:46;93454.13;;;3.92;100.00
39789;BME280;25478;42.626;23.320;2023-03-01T01:38:11;93458.13;;;3.90;100.00
39789;BME280;25478;42.626;23.320;2023-03-01T01:40:43;93462.03;;;3.84;100.00
39789;BME280;25478;42.626;23.320;2023-03-01T01:43:26;93476.00;;;3.79;100.00
39789;BME280;25478;42.626;23.320;2023-03-01T01:45:55;93474.78;;;3.77;100.00
39789;BME280;25478;42.626;23.320;2023-03-01T01:48:24;93477.41;;;3.77;100.00
39789;BME280;25478;42.626;23.320;2023-03-01T01:51:09;93472.50;;;3.75;100.00
39789;BME280;25478;42.626;23.320;2023-03-01T01:53:37;93466.13;;;3.73;100.00
39789;BME280;25478;42.626;23.320;2023-03-01T01:56:06;93454.38;;;3.66;100.00
39789;BME280;25478;42.626;23.320;2023-03-01T01:58:34;93461.78;;;3.77;100.00
39789;BME280;25478;42.626;23.320;2023-03-01T02:01:01;93442.44;;;3.65;100.00
39789;BME280;25478;42.626;23.320;2023-03-01T02:03:31;93474.78;;;3.77;100.00
39789;BME280;25478;42.626;23.320;2023-03-01T02:08:48;93456.78;;;3.72;100.00
39789;BME280;25478;42.626;23.320;2023-03-01T02:11:15;93451.56;;;3.72;100.00
39789;BME280;25478;42.626;23.320;2023-03-01T02:13:42;93454.19;;;3.72;100.00
39789;BME280;25478;42.626;23.320;2023-03-01T02:16:13;93447.13;;;3.72;100.00
39789;BME280;25478;42.626;23.320;2023-03-01T02:18:41;93453.09;;;3.73;100.00
39789;BME280;25478;42.626;23.320;2023-03-01T02:23:41;93456.31;;;3.70;100.00
39789;BME280;25478;42.626;23.320;2023-03-01T02:26:41;93456.31;;;3.70;100.00
39789;BME280;25478;42.626;23.320;2023-03-01T02:29:07;93467.06;;;3.68;100.00
39789;BME280;25478;42.626;23.320;2023-03-01T02:31:33;93443.09;;;3.62;100.00
39789;BME280;25478;42.626;23.320;2023-03-01T02:34:16;93460.47;;;3.71;100.00
39789;BME280;25478;42.626;23.320;2023-03-01T02:36:48;93467.19;;;3.72;100.00
39789;BME280;25478;42.626;23.320;2023-03-01T02:39:19;93475.00;;;3.72;100.00
39789;BME280;25478;42.626;23.320;2023-03-01T02:41:50;93463.50;;;3.73;100.00
39789;BME280;25478;42.626;23.320;2023-03-01T02:44:17;93457.63;;;3.63;100.00
39789;BME280;25478;42.626;23.320;2023-03-01T02:46:46;93463.06;;;3.71;100.00
39789;BME280;25478;42.626;23.320;2023-03-01T02:51:56;93458.75;;;3.75;100.00
39789;BME280;25478;42.626;23.320;2023-03-01T02:57:27;93457.88;;;3.71;100.00
39789;BME280;25478;42.626;23.320;2023-03-01T02:59:55;93465.47;;;3.76;100.00
39789;BME280;25478;42.626;23.320;2023-03-01T03:02:25;93455.81;;;3.76;100.00
39789;BME280;25478;42.626;23.320;2023-03-01T03:05:25;93452.00;;;3.74;100.00
39789;BME280;25478;42.626;23.320;2023-03-01T03:07:54;93441.34;;;3.66;100.00
39789;BME280;25478;42.626;23.320;2023-03-01T03:10:31;93459.16;;;3.77;100.00
39789;BME280;25478;42.626;23.320;2023-03-01T03:13:00;93452.00;;;3.74;100.00
39789;BME280;25478;42.626;23.320;2023-03-01T03:15:27;93463.84;;;3.71;100.00
39789;BME280;25478;42.626;23.320;2023-03-01T03:17:55;93454.94;;;3.72;100.00
39789;BME280;25478;42.626;23.320;2023-03-01T03:20:23;93461.22;;;3.71;100.00
39789;BME280;25478;42.626;23.320;2023-03-01T03:22:52;93451.44;;;3.68;100.00
39789;BME280;25478;42.626;23.320;2023-03-01T03:25:19;93458.31;;;3.73;100.00
39789;BME280;25478;42.626;23.320;2023-03-01T03:27:47;93455.38;;;3.74;100.00
39789;BME280;25478;42.626;23.320;2023-03-01T03:30:16;93458.09;;;3.78;100.00
39789;BME280;25478;42.626;23.320;2023-03-01T03:32:44;93457.31;;;3.77;100.00
39789;BME280;25478;42.626;23.320;2023-03-01T03:35:20;93443.13;;;3.75;100.00
39789;BME280;25478;42.626;23.320;2023-03-01T03:37:46;93458.22;;;3.81;100.00
39789;BME280;25478;42.626;23.320;2023-03-01T03:40:35;93467.22;;;3.84;100.00
39789;BME280;25478;42.626;23.320;2023-03-01T03:43:16;93456.81;;;3.84;100.00
39789;BME280;25478;42.626;23.320;2023-03-01T03:48:45;93468.41;;;3.86;100.00
39789;BME280;25478;42.626;23.320;2023-03-01T03:51:12;93462.03;;;3.84;100.00
39789;BME280;25478;42.626;23.320;2023-03-01T03:53:38;93463.88;;;3.83;100.00
39789;BME280;25478;42.626;23.320;2023-03-01T03:56:04;93462.03;;;3.84;100.00
39789;BME280;25478;42.626;23.320;2023-03-01T03:58:48;93464.50;;;3.80;100.00
39789;BME280;25478;42.626;23.320;2023-03-01T04:01:14;93460.06;;;3.81;100.00
39789;BME280;25478;42.626;23.320;2023-03-01T04:03:39;93466.66;;;3.78;100.00
39789;BME280;25478;42.626;23.320;2023-03-01T04:06:06;93464.69;;;3.75;100.00
39789;BME280;25478;42.626;23.320;2023-03-01T04:08:32;93467.97;;;3.72;100.00
39789;BME280;25478;42.626;23.320;2023-03-01T04:11:00;93472.72;;;3.70;100.00
39789;BME280;25478;42.626;23.320;2023-03-01T04:13:46;93467.06;;;3.68;100.00
39789;BME280;25478;42.626;23.320;2023-03-01T04:16:11;93462.25;;;3.58;100.00
39789;BME280;25478;42.626;23.320;2023-03-01T04:18:37;93464.97;;;3.61;100.00
39789;BME280;25478;42.626;23.320;2023-03-01T04:21:02;93465.44;;;3.63;100.00
39789;BME280;25478;42.626;23.320;2023-03-01T04:23:28;93464.53;;;3.59;100.00
39789;BME280;25478;42.626;23.320;2023-03-01T04:25:56;93470.50;;;3.60;100.00
39789;BME280;25478;42.626;23.320;2023-03-01T04:28:23;93468.97;;;3.59;100.00
39789;BME280;25478;42.626;23.320;2023-03-01T04:30:50;93473.75;;;3.57;100.00
39789;BME280;25478;42.626;23.320;2023-03-01T04:33:16;93481.88;;;3.55;100.00
39789;BME280;25478;42.626;23.320;2023-03-01T04:35:41;93480.03;;;3.56;100.00
39789;BME280;25478;42.626;23.320;2023-03-01T04:38:07;93456.94;;;3.54;100.00
39789;BME280;25478;42.626;23.320;2023-03-01T04:40:33;93467.56;;;3.61;100.00
39789;BME280;25478;42.626;23.320;2023-03-01T04:42:59;93470.81;;;3.58;100.00
39789;BME280;25478;42.626;23.320;2023-03-01T04:45:24;93453.84;;;3.40;100.00
39789;BME280;25478;42.626;23.320;2023-03-01T04:47:50;93470.47;;;3.48;100.00
39789;BME280;25478;42.626;23.320;2023-03-01T04:50:17;93460.69;;;3.45;100.00
39789;BME280;25478;42.626;23.320;2023-03-01T04:52:46;93451.81;;;3.46;100.00
39789;BME280;25478;42.626;23.320;2023-03-01T04:55:12;93449.13;;;3.33;100.00
39789;BME280;25478;42.626;23.320;2023-03-01T04:57:39;93471.09;;;3.45;100.00
39789;BME280;25478;42.626;23.320;2023-03-01T05:00:06;93458.06;;;3.45;100.00
39789;BME280;25478;42.626;23.320;2023-03-01T05:05:32;93458.72;;;3.42;100.00
39789;BME280;25478;42.626;23.320;2023-03-01T05:08:03;93461.31;;;3.42;100.00
39789;BME280;25478;42.626;23.320;2023-03-01T05:10:31;93457.53;;;3.39;100.00
39789;BME280;25478;42.626;23.320;2023-03-01T05:12:58;93463.81;;;3.38;100.00
39789;BME280;25478;42.626;23.320;2023-03-01T05:15:29;93472.25;;;3.35;100.00
39789;BME280;25478;42.626;23.320;2023-03-01T05:17:57;93464.25;;;3.40;100.00
39789;BME280;25478;42.626;23.320;2023-03-01T05:20:30;93450.53;;;3.31;100.00
39789;BME280;25478;42.626;23.320;2023-03-01T05:22:59;93461.31;;;3.42;100.00
39789;BME280;25478;42.626;23.320;2023-03-01T05:25:26;93467.88;;;3.48;100.00
39789;BME280;25478;42.626;23.320;2023-03-01T05:27:52;93463.66;;;3.55;100.00
39789;BME280;25478;42.626;23.320;2023-03-01T05:30:18;93469.13;;;3.62;100.00
39789;BME280;25478;42.626;23.320;2023-03-01T05:32:48;93455.69;;;3.73;100.00
39789;BME280;25478;42.626;23.320;2023-03-01T05:35:16;93462.25;;;3.79;100.00
39789;BME280;25478;42.626;23.320;2023-03-01T05:37:44;93442.03;;;3.76;100.00
39789;BME280;25478;42.626;23.320;2023-03-01T05:40:12;93460.97;;;3.97;100.00
39789;BME280;25478;42.626;23.320;2023-03-01T05:43:01;93456.53;;;4.10;100.00
39789;BME280;25478;42.626;23.320;2023-03-01T05:45:27;93465.78;;;4.19;100.00
39789;BME280;25478;42.626;23.320;2023-03-01T05:47:53;93463.84;;;4.29;100.00
39789;BME280;25478;42.626;23.320;2023-03-01T05:50:23;93467.13;;;4.38;100.00
39789;BME280;25478;42.626;23.320;2023-03-01T05:52:52;93464.41;;;4.46;98.86
39789;BME280;25478;42.626;23.320;2023-03-01T05:55:21;93466.78;;;4.51;97.77
39789;BME280;25478;42.626;23.320;2023-03-01T05:57:47;93477.03;;;4.57;96.98
39789;BME280;25478;42.626;23.320;2023-03-01T06:00:14;93478.63;;;4.61;96.25
39789;BME280;25478;42.626;23.320;2023-03-01T06:02:41;93481.38;;;4.65;95.95
39789;BME280;25478;42.626;23.320;2023-03-01T06:05:08;93481.13;;;4.70;94.90
39789;BME280;25478;42.626;23.320;2023-03-01T06:07:34;93478.53;;;4.70;94.57
39789;BME280;25478;42.626;23.320;2023-03-01T06:10:01;93485.81;;;4.76;93.81
39789;BME280;25478;42.626;23.320;2023-03-01T06:12:30;93465.06;;;4.68;93.85
39789;BME280;25478;42.626;23.320;2023-03-01T06:14:56;93488.53;;;4.80;93.00
39789;BME280;25478;42.626;23.320;2023-03-01T06:17:21;93495.38;;;4.85;92.42
39789;BME280;25478;42.626;23.320;2023-03-01T06:19:47;93503.31;;;4.88;92.29
39789;BME280;25478;42.626;23.320;2023-03-01T06:22:12;93491.81;;;4.89;92.51
39789;BME280;25478;42.626;23.320;2023-03-01T06:24:38;93494.06;;;4.91;92.43
39789;BME280;25478;42.626;23.320;2023-03-01T06:27:03;93504.50;;;4.91;91.92
39789;BME280;25478;42.626;23.320;2023-03-01T06:29:29;93497.53;;;4.95;91.65
39789;BME280;25478;42.626;23.320;2023-03-01T06:31:55;93500.47;;;4.93;91.52
39789;BME280;25478;42.626;23.320;2023-03-01T06:34:20;93494.06;;;4.91;91.24
39789;BME280;25478;42.626;23.320;2023-03-01T06:36:47;93498.19;;;4.92;91.06
39789;BME280;25478;42.626;23.320;2023-03-01T06:39:12;93506.47;;;4.94;90.96
39789;BME280;25478;42.626;23.320;2023-03-01T06:41:38;93501.56;;;4.92;91.39
39789;BME280;25478;42.626;23.320;2023-03-01T06:44:03;93509.06;;;4.94;91.27
39789;BME280;25478;42.626;23.320;2023-03-01T06:46:29;93493.94;;;4.87;90.46
39789;BME280;25478;42.626;23.320;2023-03-01T06:48:55;93499.63;;;4.89;90.26
39789;BME280;25478;42.626;23.320;2023-03-01T06:51:21;93506.88;;;4.96;90.33
39789;BME280;25478;42.626;23.320;2023-03-01T06:53:46;93499.19;;;4.99;90.53
39789;BME280;25478;42.626;23.320;2023-03-01T06:56:12;93511.56;;;5.02;90.33
39789;BME280;25478;42.626;23.320;2023-03-01T06:58:37;93493.41;;;5.06;89.67
39789;BME280;25478;42.626;23.320;2023-03-01T07:01:09;93497.97;;;5.09;89.70
39789;BME280;25478;42.626;23.320;2023-03-01T07:03:35;93494.28;;;5.10;88.57
39789;BME280;25478;42.626;23.320;2023-03-01T07:06:00;93497.22;;;5.08;88.95
39789;BME280;25478;42.626;23.320;2023-03-01T07:08:26;93506.69;;;5.13;88.79
39789;BME280;25478;42.626;23.320;2023-03-01T07:10:56;93502.22;;;5.14;88.86
39789;BME280;25478;42.626;23.320;2023-03-01T07:13:22;93499.78;;;5.21;89.52
39789;BME280;25478;42.626;23.320;2023-03-01T07:15:47;93498.16;;;5.28;89.85
39789;BME280;25478;42.626;23.320;2023-03-01T07:18:13;93500.63;;;5.37;89.68
39789;BME280;25478;42.626;23.320;2023-03-01T07:20:39;93499.75;;;5.45;89.62
39789;BME280;25478;42.626;23.320;2023-03-01T07:23:06;93486.38;;;5.47;89.08
39789;BME280;25478;42.626;23.320;2023-03-01T07:25:32;93497.44;;;5.56;88.91
39789;BME280;25478;42.626;23.320;2023-03-01T07:27:58;93474.63;;;5.41;88.22
39789;BME280;25478;42.626;23.320;2023-03-01T07:30:24;93493.19;;;5.51;87.71
39789;BME280;25478;42.626;23.320;2023-03-01T07:32:51;93494.22;;;5.47;88.01
39789;BME280;25478;42.626;23.320;2023-03-01T07:35:17;93475.41;;;5.41;87.96
39789;BME280;25478;42.626;23.320;2023-03-01T07:37:44;93491.69;;;5.50;88.75
39789;BME280;25478;42.626;23.320;2023-03-01T07:40:10;93487.78;;;5.44;88.71
39789;BME280;25478;42.626;23.320;2023-03-01T07:42:36;93482.06;;;5.26;88.94
39789;BME280;25478;42.626;23.320;2023-03-01T07:45:02;93486.72;;;5.33;89.08
39789;BME280;25478;42.626;23.320;2023-03-01T07:47:28;93495.41;;;5.37;89.35
39789;BME280;25478;42.626;23.320;2023-03-01T07:49:53;93479.56;;;5.30;89.24
39789;BME280;25478;42.626;23.320;2023-03-01T07:52:19;93489.22;;;5.42;89.36
39789;BME280;25478;42.626;23.320;2023-03-01T07:54:44;93483.22;;;5.41;88.61
39789;BME280;25478;42.626;23.320;2023-03-01T07:57:10;93480.63;;;5.41;89.40
39789;BME280;25478;42.626;23.320;2023-03-01T07:59:36;93480.38;;;5.46;88.45
39789;BME280;25478;42.626;23.320;2023-03-01T08:02:01;93480.16;;;5.51;87.92
39789;BME280;25478;42.626;23.320;2023-03-01T08:04:27;93470.03;;;5.50;88.08
39789;BME280;25478;42.626;23.320;2023-03-01T08:06:53;93463.09;;;5.42;88.13
39789;BME280;25478;42.626;23.320;2023-03-01T08:09:19;93466.34;;;5.51;88.02
39789;BME280;25478;42.626;23.320;2023-03-01T08:11:44;93475.00;;;5.55;88.24
39789;BME280;25478;42.626;23.320;2023-03-01T08:14:10;93464.91;;;5.53;88.08
39789;BME280;25478;42.626;23.320;2023-03-01T08:16:36;93470.88;;;5.54;88.38
39789;BME280;25478;42.626;23.320;2023-03-01T08:19:10;93471.75;;;5.58;87.62
39789;BME280;25478;42.626;23.320;2023-03-01T08:21:36;93479.34;;;5.63;88.20
39789;BME280;25478;42.626;23.320;2023-03-01T08:24:05;93452.72;;;5.57;88.40
39789;BME280;25478;42.626;23.320;2023-03-01T08:26:31;93476.47;;;5.80;87.85
39789;BME280;25478;42.626;23.320;2023-03-01T08:28:57;93480.00;;;5.88;87.88
39789;BME280;25478;42.626;23.320;2023-03-01T08:31:32;93474.59;;;5.81;86.80
39789;BME280;25478;42.626;23.320;2023-03-01T08:34:00;93478.34;;;5.68;87.26
39789;BME280;25478;42.626;23.320;2023-03-01T08:36:29;93473.97;;;5.72;87.25
39789;BME280;25478;42.626;23.320;2023-03-01T08:38:55;93470.91;;;5.82;87.66
39789;BME280;25478;42.626;23.320;2023-03-01T08:41:20;93471.97;;;5.93;86.36
39789;BME280;25478;42.626;23.320;2023-03-01T08:43:46;93467.25;;;5.99;86.61
39789;BME280;25478;42.626;23.320;2023-03-01T08:46:12;93468.03;;;6.15;85.85
39789;BME280;25478;42.626;23.320;2023-03-01T08:48:39;93473.88;;;6.24;86.27
39789;BME280;25478;42.626;23.320;2023-03-01T08:51:13;93476.66;;;6.31;85.67
39789;BME280;25478;42.626;23.320;2023-03-01T08:53:39;93474.88;;;6.35;85.02
39789;BME280;25478;42.626;23.320;2023-03-01T08:56:05;93478.34;;;6.39;84.67
39789;BME280;25478;42.626;23.320;2023-03-01T08:58:31;93480.19;;;6.39;83.93
39789;BME280;25478;42.626;23.320;2023-03-01T09:00:56;93465.09;;;6.32;84.65
39789;BME280;25478;42.626;23.320;2023-03-01T09:03:24;93471.16;;;6.36;83.93
39789;BME280;25478;42.626;23.320;2023-03-01T09:05:51;93471.75;;;6.45;83.09
39789;BME280;25478;42.626;23.320;2023-03-01T09:08:18;93466.47;;;6.42;83.74
39789;BME280;25478;42.626;23.320;2023-03-01T09:10:44;93476.06;;;6.38;84.01
39789;BME280;25478;42.626;23.320;2023-03-01T09:13:09;93475.97;;;6.34;83.58
39789;BME280;25478;42.626;23.320;2023-03-01T09:15:38;93491.31;;;6.36;83.23
39789;BME280;25478;42.626;23.320;2023-03-01T09:18:04;93473.38;;;6.34;83.63
39789;BME280;25478;42.626;23.320;2023-03-01T09:20:31;93482.97;;;6.46;83.21
39789;BME280;25478;42.626;23.320;2023-03-01T09:22:57;93471.50;;;6.51;82.67
39789;BME280;25478;42.626;23.320;2023-03-01T09:25:23;93462.41;;;6.60;83.38
39789;BME280;25478;42.626;23.320;2023-03-01T09:27:52;93469.56;;;6.63;82.72
39789;BME280;25478;42.626;23.320;2023-03-01T09:30:18;93465.59;;;6.69;83.06
39789;BME280;25478;42.626;23.320;2023-03-01T09:32:44;93469.19;;;6.81;81.60
39789;BME280;25478;42.626;23.320;2023-03-01T09:35:11;93467.38;;;6.81;81.71
39789;BME280;25478;42.626;23.320;2023-03-01T09:37:37;93466.28;;;6.82;82.23
39789;BME280;25478;42.626;23.320;2023-03-01T09:40:05;93462.13;;;6.81;81.51
39789;BME280;25478;42.626;23.320;2023-03-01T09:42:34;93458.84;;;6.84;80.96
39789;BME280;25478;42.626;23.320;2023-03-01T09:45:04;93456.56;;;6.83;81.38
39789;BME280;25478;42.626;23.320;2023-03-01T09:47:33;93457.66;;;6.82;82.02
39789;BME280;25478;42.626;23.320;2023-03-01T09:50:20;93464.47;;;6.86;82.03
39789;BME280;25478;42.626;23.320;2023-03-01T09:55:28;93455.63;;;6.91;80.64
39789;BME280;25478;42.626;23.320;2023-03-01T10:00:47;93448.78;;;6.86;81.62
39789;BME280;25478;42.626;23.320;2023-03-01T10:08:58;93441.50;;;6.95;81.34
39789;BME280;25478;42.626;23.320;2023-03-01T10:11:28;93440.53;;;7.03;81.40
39789;BME280;25478;42.626;23.320;2023-03-01T10:16:56;93437.47;;;6.98;80.96
39789;BME280;25478;42.626;23.320;2023-03-01T10:22:26;93434.59;;;6.87;81.04
39789;BME280;25478;42.626;23.320;2023-03-01T10:24:55;93420.53;;;6.76;81.51
39789;BME280;25478;42.626;23.320;2023-03-01T10:27:31;93417.22;;;6.79;82.28
39789;BME280;25478;42.626;23.320;2023-03-01T10:30:10;93425.50;;;6.81;82.22
39789;BME280;25478;42.626;23.320;2023-03-01T10:32:37;93419.94;;;6.83;81.93
39789;BME280;25478;42.626;23.320;2023-03-01T10:35:23;93410.16;;;6.64;81.87
39789;BME280;25478;42.626;23.320;2023-03-01T10:40:27;93412.94;;;6.71;82.45
39789;BME280;25478;42.626;23.320;2023-03-01T10:42:53;93406.19;;;6.70;82.92
39789;BME280;25478;42.626;23.320;2023-03-01T10:45:33;93409.81;;;6.81;82.57
39789;BME280;25478;42.626;23.320;2023-03-01T10:50:33;93403.88;;;6.84;82.42
39789;BME280;25478;42.626;23.320;2023-03-01T10:53:01;93410.38;;;6.90;82.23
39789;BME280;25478;42.626;23.320;2023-03-01T10:55:38;93405.19;;;6.94;81.46
39789;BME280;25478;42.626;23.320;2023-03-01T11:00:53;93413.28;;;7.04;82.00
39789;BME280;25478;42.626;23.320;2023-03-01T11:03:23;93417.28;;;6.98;81.25
39789;BME280;25478;42.626;23.320;2023-03-01T11:08:39;93408.25;;;6.80;81.99
39789;BME280;25478;42.626;23.320;2023-03-01T11:13:31;93418.16;;;6.71;82.56
39789;BME280;25478;42.626;23.320;2023-03-01T11:16:06;93417.06;;;6.72;82.67
39789;BME280;25478;42.626;23.320;2023-03-01T11:18:32;93424.09;;;6.68;82.74
39789;BME280;25478;42.626;23.320;2023-03-01T11:20:59;93422.06;;;6.61;82.67
39789;BME280;25478;42.626;23.320;2023-03-01T11:23:28;93420.72;;;6.52;82.81
39789;BME280;25478;42.626;23.320;2023-03-01T11:26:00;93426.13;;;6.43;83.32
39789;BME280;25478;42.626;23.320;2023-03-01T11:28:29;93416.66;;;6.38;83.62
39789;BME280;25478;42.626;23.320;2023-03-01T11:31:06;93411.78;;;6.37;84.02
39789;BME280;25478;42.626;23.320;2023-03-01T11:33:44;93423.09;;;6.41;84.29
39789;BME280;25478;42.626;23.320;2023-03-01T11:36:28;93414.97;;;6.46;84.25
39789;BME280;25478;42.626;23.320;2023-03-01T11:38:56;93415.56;;;6.55;83.09
39789;BME280;25478;42.626;23.320;2023-03-01T11:41:29;93400.50;;;6.48;83.73
39789;BME280;25478;42.626;23.320;2023-03-01T11:44:23;93406.66;;;6.40;83.71
39789;BME280;25478;42.626;23.320;2023-03-01T12:01:21;93385.63;;;6.21;85.54
39789;BME280;25478;42.626;23.320;2023-03-01T12:20:05;93372.38;;;6.81;82.50
39789;BME280;25478;42.626;23.320;2023-03-01T12:22:59;93362.91;;;6.92;82.75
39789;BME280;25478;42.626;23.320;2023-03-01T12:28:18;93366.00;;;6.97;81.82
39789;BME280;25478;42.626;23.320;2023-03-01T12:33:54;93371.81;;;7.07;82.10
39789;BME280;25478;42.626;23.320;2023-03-01T12:41:48;93349.34;;;7.05;81.46
39789;BME280;25478;42.626;23.320;2023-03-01T12:49:21;93336.25;;;7.25;80.62
39789;BME280;25478;42.626;23.320;2023-03-01T12:51:56;93348.09;;;7.38;80.94
39789;BME280;25478;42.626;23.320;2023-03-01T12:54:36;93350.56;;;7.31;80.97
39789;BME280;25478;42.626;23.320;2023-03-01T12:57:24;93346.78;;;7.28;80.77
39789;BME280;25478;42.626;23.320;2023-03-01T13:00:00;93346.44;;;7.30;81.34
39789;BME280;25478;42.626;23.320;2023-03-01T13:02:49;93346.22;;;7.39;80.87
39789;BME280;25478;42.626;23.320;2023-03-01T13:08:22;93347.34;;;7.38;80.34
39789;BME280;25478;42.626;23.320;2023-03-01T13:10:57;93350.38;;;7.40;80.34
39789;BME280;25478;42.626;23.320;2023-03-01T13:13:27;93352.66;;;7.41;81.02
39789;BME280;25478;42.626;23.320;2023-03-01T13:15:53;93356.72;;;7.39;80.36
39789;BME280;25478;42.626;23.320;2023-03-01T13:18:27;93343.00;;;7.26;80.83
39789;BME280;25478;42.626;23.320;2023-03-01T13:20:57;93339.75;;;7.13;80.95
39789;BME280;25478;42.626;23.320;2023-03-01T13:23:27;93344.53;;;7.27;80.58
39789;BME280;25478;42.626;23.320;2023-03-01T13:26:00;93345.00;;;7.32;80.41
39789;BME280;25478;42.626;23.320;2023-03-01T13:33:49;93348.38;;;7.14;81.15
39789;BME280;25478;42.626;23.320;2023-03-01T13:46:49;93352.31;;;6.85;82.95
39789;BME280;25478;42.626;23.320;2023-03-01T13:49:19;93321.66;;;6.66;82.75
39789;BME280;25478;42.626;23.320;2023-03-01T13:51:49;93345.75;;;6.75;83.52
39789;BME280;25478;42.626;23.320;2023-03-01T13:54:31;93341.13;;;6.68;83.21
39789;BME280;25478;42.626;23.320;2023-03-01T13:57:01;93337.00;;;6.67;83.71
39789;BME280;25478;42.626;23.320;2023-03-01T13:59:27;93334.56;;;6.59;84.17
39789;BME280;25478;42.626;23.320;2023-03-01T14:01:57;93342.22;;;6.67;83.98
39789;BME280;25478;42.626;23.320;2023-03-01T14:04:32;93324.16;;;6.62;83.93
39789;BME280;25478;42.626;23.320;2023-03-01T14:07:18;93344.09;;;6.67;83.99
39789;BME280;25478;42.626;23.320;2023-03-01T14:09:46;93343.22;;;6.63;84.42
39789;BME280;25478;42.626;23.320;2023-03-01T14:15:25;93333.16;;;6.45;84.92
39789;BME280;25478;42.626;23.320;2023-03-01T14:20:24;93347.94;;;6.38;86.18
39789;BME280;25478;42.626;23.320;2023-03-01T14:22:59;93337.75;;;6.33;86.21
39789;BME280;25478;42.626;23.320;2023-03-01T14:25:31;93319.72;;;6.12;86.13
39789;BME280;25478;42.626;23.320;2023-03-01T14:28:01;93323.25;;;6.19;86.43
39789;BME280;25478;42.626;23.320;2023-03-01T14:30:34;93330.50;;;6.26;86.29
39789;BME280;25478;42.626;23.320;2023-03-01T14:33:03;93337.41;;;6.34;86.94
39789;BME280;25478;42.626;23.320;2023-03-01T14:35:31;93333.91;;;6.46;86.40
39789;BME280;25478;42.626;23.320;2023-03-01T14:37:57;93312.06;;;6.38;86.37
39789;BME280;25478;42.626;23.320;2023-03-01T14:40:32;93323.25;;;6.55;85.99
39789;BME280;25478;42.626;23.320;2023-03-01T14:43:00;93332.31;;;6.57;86.22
39789;BME280;25478;42.626;23.320;2023-03-01T14:45:28;93328.22;;;6.60;85.05
39789;BME280;25478;42.626;23.320;2023-03-01T14:47:55;93321.94;;;6.45;85.82
39789;BME280;25478;42.626;23.320;2023-03-01T14:50:31;93332.41;;;6.45;86.23
39789;BME280;25478;42.626;23.320;2023-03-01T14:53:05;93332.16;;;6.34;86.45
39789;BME280;25478;42.626;23.320;2023-03-01T14:55:35;93323.06;;;6.28;86.38
39789;BME280;25478;42.626;23.320;2023-03-01T14:58:08;93320.72;;;6.23;86.64
39789;BME280;25478;42.626;23.320;2023-03-01T15:00:35;93321.56;;;6.11;87.62
39789;BME280;25478;42.626;23.320;2023-03-01T15:03:07;93323.34;;;6.07;87.88
39789;BME280;25478;42.626;23.320;2023-03-01T15:05:39;93317.63;;;6.02;87.80